createdAt,value
2017-06-22T00:00:08.600Z,0
2017-06-22T00:00:49.060Z,0
2017-06-22T00:01:29.519Z,0
2017-06-22T00:02:09.978Z,0
2017-06-22T00:02:50.439Z,0
2017-06-22T00:03:30.903Z,0
2017-06-22T00:04:11.356Z,0
2017-06-22T00:04:51.815Z,0
2017-06-22T00:05:32.278Z,0
2017-06-22T00:06:12.736Z,0
2017-06-22T00:06:53.206Z,0
2017-06-22T00:07:33.661Z,0
2017-06-22T00:08:14.119Z,0
2017-06-22T00:08:54.574Z,0
2017-06-22T00:09:35.034Z,0
2017-06-22T00:10:15.494Z,0
2017-06-22T00:10:55.960Z,0
2017-06-22T00:11:36.421Z,0
2017-06-22T00:12:16.884Z,0
2017-06-22T00:12:57.344Z,0
2017-06-22T00:13:37.797Z,0
2017-06-22T00:14:18.262Z,0
2017-06-22T00:14:58.720Z,0
2017-06-22T00:15:39.184Z,0
2017-06-22T00:16:19.682Z,0
2017-06-22T00:17:00.140Z,0
2017-06-22T00:17:40.597Z,0
2017-06-22T00:18:21.051Z,0
2017-06-22T00:19:01.512Z,0
2017-06-22T00:19:41.969Z,0
2017-06-22T00:20:22.444Z,0
2017-06-22T00:21:02.898Z,0
2017-06-22T00:21:43.357Z,0
2017-06-22T00:22:23.818Z,0
2017-06-22T00:23:04.280Z,0
2017-06-22T00:23:44.742Z,0
2017-06-22T00:24:25.209Z,0
2017-06-22T00:25:05.664Z,0
2017-06-22T00:25:46.126Z,0
2017-06-22T00:26:26.582Z,0
2017-06-22T00:27:07.043Z,0
2017-06-22T00:27:47.500Z,0
2017-06-22T00:28:27.943Z,0
2017-06-22T00:29:08.397Z,0
2017-06-22T00:29:48.852Z,0
2017-06-22T00:30:29.316Z,0
2017-06-22T00:31:09.782Z,0
2017-06-22T00:31:50.237Z,0
2017-06-22T00:32:30.698Z,0
2017-06-22T00:33:11.161Z,0
2017-06-22T00:33:51.614Z,0
2017-06-22T00:34:32.076Z,0
2017-06-22T00:35:12.537Z,0
2017-06-22T00:35:52.990Z,0
2017-06-22T00:36:33.450Z,0
2017-06-22T00:37:13.912Z,0
2017-06-22T00:37:54.360Z,0
2017-06-22T00:38:34.812Z,0
2017-06-22T00:39:15.277Z,0
2017-06-22T00:41:48.767Z,0
2017-06-22T00:42:29.251Z,0
2017-06-22T00:43:09.710Z,0
2017-06-22T00:43:50.170Z,0
2017-06-22T00:44:30.628Z,0
2017-06-22T00:45:11.088Z,0
2017-06-22T00:45:51.544Z,0
2017-06-22T00:46:32.005Z,0
2017-06-22T00:47:12.464Z,0
2017-06-22T00:47:52.919Z,0
2017-06-22T00:48:33.378Z,0
2017-06-22T00:49:13.828Z,0
2017-06-22T00:49:54.294Z,0
2017-06-22T00:50:34.754Z,0
2017-06-22T00:51:15.211Z,0
2017-06-22T00:51:55.674Z,0
2017-06-22T00:52:36.126Z,0
2017-06-22T00:53:16.584Z,0
2017-06-22T00:53:57.046Z,0
2017-06-22T00:54:37.508Z,0
2017-06-22T00:55:17.958Z,0
2017-06-22T00:55:58.417Z,0
2017-06-22T00:56:38.875Z,0
2017-06-22T00:57:19.336Z,0
2017-06-22T00:57:59.795Z,0
2017-06-22T00:58:40.261Z,0
2017-06-22T00:59:20.717Z,0
2017-06-22T01:00:01.168Z,0
2017-06-22T01:00:41.629Z,0
2017-06-22T01:01:22.089Z,0
2017-06-22T01:02:02.544Z,0
2017-06-22T01:04:30.927Z,0
2017-06-22T01:05:11.373Z,0
2017-06-22T01:05:51.829Z,0
2017-06-22T01:06:32.299Z,0
2017-06-22T01:07:12.753Z,0
2017-06-22T01:07:53.210Z,0
2017-06-22T01:08:33.673Z,0
2017-06-22T01:09:14.126Z,0
2017-06-22T01:09:54.582Z,0
2017-06-22T01:10:35.049Z,0
2017-06-22T01:11:15.506Z,0
2017-06-22T01:11:55.958Z,0
2017-06-22T01:12:36.418Z,0
2017-06-22T01:13:16.870Z,0
2017-06-22T01:13:57.316Z,0
2017-06-22T01:14:37.778Z,0
2017-06-22T01:15:18.239Z,0
2017-06-22T01:15:58.696Z,0
2017-06-22T01:16:39.138Z,0
2017-06-22T01:17:19.585Z,0
2017-06-22T01:18:00.043Z,0
2017-06-22T01:18:40.505Z,0
2017-06-22T01:19:20.953Z,0
2017-06-22T01:20:01.414Z,0
2017-06-22T01:20:41.875Z,0
2017-06-22T01:21:22.349Z,0
2017-06-22T01:22:02.815Z,0
2017-06-22T01:22:43.295Z,0
2017-06-22T01:23:23.734Z,0
2017-06-22T01:24:04.183Z,0
2017-06-22T01:24:44.632Z,0
2017-06-22T01:25:25.087Z,0
2017-06-22T01:26:05.545Z,0
2017-06-22T01:26:45.994Z,0
2017-06-22T01:27:26.461Z,0
2017-06-22T01:28:06.947Z,0
2017-06-22T01:28:47.407Z,0
2017-06-22T01:29:27.869Z,0
2017-06-22T01:30:08.331Z,0
2017-06-22T01:30:48.790Z,0
2017-06-22T01:31:29.251Z,0
2017-06-22T01:32:09.710Z,0
2017-06-22T01:32:50.165Z,0
2017-06-22T01:33:30.638Z,0
2017-06-22T01:34:11.095Z,0
2017-06-22T01:34:51.557Z,0
2017-06-22T01:35:32.015Z,0
2017-06-22T01:36:12.474Z,0
2017-06-22T01:36:52.925Z,0
2017-06-22T01:37:33.383Z,0
2017-06-22T01:38:13.849Z,0
2017-06-22T01:38:54.297Z,0
2017-06-22T01:39:34.768Z,0
2017-06-22T01:40:15.224Z,0
2017-06-22T01:40:55.688Z,0
2017-06-22T01:41:36.143Z,0
2017-06-22T01:42:16.590Z,0
2017-06-22T01:42:57.049Z,0
2017-06-22T01:43:37.509Z,0
2017-06-22T01:44:17.972Z,0
2017-06-22T01:44:58.432Z,0
2017-06-22T01:47:16.431Z,0
2017-06-22T01:47:56.890Z,0
2017-06-22T01:48:37.351Z,0
2017-06-22T01:49:17.806Z,0
2017-06-22T01:49:58.274Z,0
2017-06-22T01:50:38.735Z,0
2017-06-22T01:51:19.192Z,0
2017-06-22T01:51:59.652Z,0
2017-06-22T01:52:40.102Z,0
2017-06-22T01:53:20.566Z,0
2017-06-22T01:54:01.020Z,0
2017-06-22T01:54:41.478Z,0
2017-06-22T01:55:21.941Z,0
2017-06-22T01:56:02.400Z,0
2017-06-22T01:56:42.850Z,0
2017-06-22T01:57:23.322Z,0
2017-06-22T01:58:03.782Z,0
2017-06-22T01:58:44.238Z,0
2017-06-22T01:59:24.700Z,0
2017-06-22T02:00:05.154Z,0
2017-06-22T02:00:45.599Z,0
2017-06-22T02:01:26.041Z,0
2017-06-22T02:02:06.495Z,0
2017-06-22T02:02:46.948Z,0
2017-06-22T02:03:27.395Z,0
2017-06-22T02:04:07.858Z,0
2017-06-22T02:04:48.315Z,0
2017-06-22T02:05:28.777Z,0
2017-06-22T02:06:09.238Z,0
2017-06-22T02:06:49.694Z,0
2017-06-22T02:07:30.155Z,0
2017-06-22T02:08:10.623Z,0
2017-06-22T02:08:51.076Z,0
2017-06-22T02:09:31.524Z,0
2017-06-22T02:10:11.977Z,0
2017-06-22T02:10:52.439Z,0
2017-06-22T02:11:32.895Z,0
2017-06-22T02:12:13.348Z,0
2017-06-22T02:12:53.807Z,0
2017-06-22T02:13:34.279Z,0
2017-06-22T02:14:14.741Z,0
2017-06-22T02:14:55.200Z,0
2017-06-22T02:15:35.661Z,0
2017-06-22T02:16:16.117Z,0
2017-06-22T02:16:56.580Z,0
2017-06-22T02:17:37.039Z,0
2017-06-22T02:18:17.502Z,0
2017-06-22T02:18:57.959Z,0
2017-06-22T02:19:38.419Z,0
2017-06-22T02:20:18.868Z,0
2017-06-22T02:20:59.317Z,0
2017-06-22T02:21:39.777Z,0
2017-06-22T02:22:20.231Z,0
2017-06-22T02:23:00.694Z,0
2017-06-22T02:23:41.171Z,0
2017-06-22T02:24:21.619Z,0
2017-06-22T02:25:02.103Z,0
2017-06-22T02:25:42.569Z,0
2017-06-22T02:26:23.030Z,0
2017-06-22T02:27:03.489Z,0
2017-06-22T02:27:43.944Z,0
2017-06-22T02:28:24.424Z,0
2017-06-22T02:29:04.871Z,0
2017-06-22T02:29:45.338Z,0
2017-06-22T02:30:25.798Z,0
2017-06-22T02:31:06.258Z,0
2017-06-22T02:31:46.705Z,0
2017-06-22T02:32:27.161Z,0
2017-06-22T02:33:07.634Z,0
2017-06-22T02:33:48.057Z,0
2017-06-22T02:34:28.526Z,0
2017-06-22T02:35:08.979Z,0
2017-06-22T02:35:49.449Z,0
2017-06-22T02:36:29.917Z,0
2017-06-22T02:37:10.373Z,0
2017-06-22T02:37:50.830Z,0
2017-06-22T02:38:31.292Z,0
2017-06-22T02:39:11.753Z,0
2017-06-22T02:39:52.215Z,0
2017-06-22T02:40:32.669Z,0
2017-06-22T02:41:13.128Z,0
2017-06-22T02:41:53.587Z,0
2017-06-22T02:42:34.045Z,0
2017-06-22T02:43:14.506Z,0
2017-06-22T02:43:54.959Z,0
2017-06-22T02:44:35.415Z,0
2017-06-22T02:45:15.869Z,0
2017-06-22T02:45:56.317Z,0
2017-06-22T02:46:36.775Z,0
2017-06-22T02:47:17.236Z,0
2017-06-22T02:47:57.708Z,0
2017-06-22T02:48:38.159Z,0
2017-06-22T02:49:18.622Z,0
2017-06-22T02:49:59.064Z,0
2017-06-22T02:50:39.514Z,0
2017-06-22T02:51:19.977Z,0
2017-06-22T02:52:00.434Z,0
2017-06-22T02:52:40.893Z,0
2017-06-22T02:53:21.350Z,0
2017-06-22T02:54:01.827Z,0
2017-06-22T02:54:42.286Z,0
2017-06-22T02:55:22.747Z,0
2017-06-22T02:57:35.825Z,0
2017-06-22T02:58:16.288Z,0
2017-06-22T02:58:56.742Z,0
2017-06-22T02:59:37.206Z,0
2017-06-22T03:00:17.665Z,0
2017-06-22T03:00:58.124Z,0
2017-06-22T03:01:38.585Z,0
2017-06-22T03:02:19.039Z,0
2017-06-22T03:02:59.499Z,0
2017-06-22T03:03:39.949Z,0
2017-06-22T03:04:20.409Z,0
2017-06-22T03:05:00.859Z,0
2017-06-22T03:05:41.313Z,0
2017-06-22T03:06:21.769Z,0
2017-06-22T03:07:02.231Z,0
2017-06-22T03:07:42.687Z,0
2017-06-22T03:08:23.137Z,0
2017-06-22T03:09:03.593Z,0
2017-06-22T03:09:44.055Z,0
2017-06-22T03:10:24.511Z,0
2017-06-22T03:11:04.968Z,0
2017-06-22T03:11:45.430Z,0
2017-06-22T03:12:25.890Z,0
2017-06-22T03:13:06.386Z,0
2017-06-22T03:13:46.845Z,0
2017-06-22T03:14:27.301Z,0
2017-06-22T03:15:07.752Z,0
2017-06-22T03:15:48.197Z,0
2017-06-22T03:16:28.658Z,0
2017-06-22T03:17:09.115Z,0
2017-06-22T03:17:49.578Z,0
2017-06-22T03:18:30.043Z,0
2017-06-22T03:19:10.500Z,0
2017-06-22T03:19:50.956Z,0
2017-06-22T03:20:31.420Z,0
2017-06-22T03:21:11.888Z,0
2017-06-22T03:21:52.353Z,0
2017-06-22T03:22:32.829Z,0
2017-06-22T03:23:13.292Z,0
2017-06-22T03:23:53.742Z,0
2017-06-22T03:24:34.201Z,0
2017-06-22T03:25:14.664Z,0
2017-06-22T03:25:55.122Z,0
2017-06-22T03:26:35.586Z,0
2017-06-22T03:27:16.034Z,0
2017-06-22T03:27:56.488Z,0
2017-06-22T03:28:36.946Z,0
2017-06-22T03:29:17.406Z,0
2017-06-22T03:29:57.861Z,0
2017-06-22T03:30:38.326Z,0
2017-06-22T03:31:18.780Z,0
2017-06-22T03:31:59.230Z,0
2017-06-22T03:32:39.685Z,0
2017-06-22T03:33:20.141Z,0
2017-06-22T03:34:00.601Z,0
2017-06-22T03:34:41.061Z,0
2017-06-22T03:35:21.520Z,0
2017-06-22T03:36:01.979Z,0
2017-06-22T03:36:42.448Z,0
2017-06-22T03:37:22.922Z,0
2017-06-22T03:38:03.379Z,0
2017-06-22T03:38:43.838Z,0
2017-06-22T03:39:24.293Z,0
2017-06-22T03:40:04.741Z,0
2017-06-22T03:40:45.203Z,0
2017-06-22T03:41:25.651Z,0
2017-06-22T03:42:06.092Z,0
2017-06-22T03:42:46.544Z,0
2017-06-22T03:43:26.996Z,0
2017-06-22T03:44:07.449Z,0
2017-06-22T03:44:47.921Z,0
2017-06-22T03:45:28.378Z,0
2017-06-22T03:46:08.833Z,0
2017-06-22T03:46:49.492Z,0
2017-06-22T03:49:02.564Z,0
2017-06-22T03:49:43.021Z,0
2017-06-22T03:50:23.488Z,0
2017-06-22T03:51:03.939Z,5
2017-06-22T03:51:44.407Z,5
2017-06-22T03:52:24.851Z,5
2017-06-22T03:53:05.297Z,5
2017-06-22T03:53:45.755Z,0
2017-06-22T03:54:26.212Z,0
2017-06-22T03:55:06.669Z,0
2017-06-22T03:55:47.129Z,0
2017-06-22T03:56:27.575Z,0
2017-06-22T03:57:08.034Z,0
2017-06-22T03:57:48.495Z,0
2017-06-22T03:58:28.943Z,0
2017-06-22T03:59:09.399Z,0
2017-06-22T03:59:49.868Z,0
2017-06-22T04:00:30.347Z,0
2017-06-22T04:01:10.838Z,0
2017-06-22T04:01:51.287Z,0
2017-06-22T04:02:31.745Z,0
2017-06-22T04:03:12.207Z,0
2017-06-22T04:03:52.665Z,0
2017-06-22T04:04:33.124Z,0
2017-06-22T04:05:13.590Z,0
2017-06-22T04:05:54.053Z,0
2017-06-22T04:06:34.525Z,0
2017-06-22T04:07:14.978Z,0
2017-06-22T04:07:55.424Z,0
2017-06-22T04:08:35.880Z,0
2017-06-22T04:09:16.325Z,0
2017-06-22T04:09:56.773Z,0
2017-06-22T04:10:37.233Z,0
2017-06-22T04:11:17.690Z,0
2017-06-22T04:11:58.150Z,0
2017-06-22T04:12:38.617Z,0
2017-06-22T04:13:19.075Z,0
2017-06-22T04:13:59.537Z,0
2017-06-22T04:14:39.999Z,0
2017-06-22T04:15:20.458Z,0
2017-06-22T04:16:00.921Z,0
2017-06-22T04:16:41.369Z,5
2017-06-22T04:17:21.837Z,5
2017-06-22T04:18:02.316Z,5
2017-06-22T04:18:42.754Z,5
2017-06-22T04:19:23.211Z,5
2017-06-22T04:20:03.675Z,5
2017-06-22T04:20:44.135Z,5
2017-06-22T04:21:24.606Z,5
2017-06-22T04:22:05.059Z,5
2017-06-22T04:22:45.543Z,5
2017-06-22T04:23:26.006Z,5
2017-06-22T04:24:06.463Z,5
2017-06-22T04:24:46.914Z,5
2017-06-22T04:25:27.374Z,5
2017-06-22T04:26:07.830Z,5
2017-06-22T04:26:48.280Z,5
2017-06-22T04:27:28.727Z,5
2017-06-22T04:28:09.187Z,5
2017-06-22T04:28:49.638Z,5
2017-06-22T04:29:30.095Z,5
2017-06-22T04:30:10.552Z,5
2017-06-22T04:30:51.013Z,5
2017-06-22T04:31:31.470Z,5
2017-06-22T04:32:11.927Z,5
2017-06-22T04:32:52.383Z,5
2017-06-22T04:33:32.860Z,5
2017-06-22T04:34:13.325Z,5
2017-06-22T04:34:53.779Z,5
2017-06-22T04:35:34.226Z,5
2017-06-22T04:36:14.688Z,5
2017-06-22T04:36:55.146Z,5
2017-06-22T04:37:35.606Z,5
2017-06-22T04:38:16.065Z,5
2017-06-22T04:38:56.523Z,5
2017-06-22T04:39:36.986Z,5
2017-06-22T04:40:17.455Z,5
2017-06-22T04:40:57.913Z,5
2017-06-22T04:41:38.362Z,5
2017-06-22T04:42:18.827Z,5
2017-06-22T04:42:59.288Z,5
2017-06-22T04:43:39.738Z,5
2017-06-22T04:44:20.197Z,5
2017-06-22T04:45:00.660Z,5
2017-06-22T04:45:41.123Z,5
2017-06-22T04:46:21.581Z,5
2017-06-22T04:47:02.052Z,5
2017-06-22T04:47:42.497Z,5
2017-06-22T04:48:22.969Z,5
2017-06-22T04:49:03.456Z,10
2017-06-22T04:49:43.913Z,10
2017-06-22T04:50:24.382Z,10
2017-06-22T04:51:04.867Z,10
2017-06-22T04:51:45.329Z,10
2017-06-22T04:52:25.781Z,10
2017-06-22T04:53:06.236Z,10
2017-06-22T04:53:46.697Z,10
2017-06-22T04:54:27.152Z,10
2017-06-22T04:55:07.600Z,10
2017-06-22T04:55:48.059Z,10
2017-06-22T04:56:28.496Z,10
2017-06-22T04:57:08.962Z,10
2017-06-22T04:57:49.430Z,10
2017-06-22T04:58:29.895Z,10
2017-06-22T04:59:10.359Z,10
2017-06-22T04:59:50.812Z,10
2017-06-22T05:00:31.272Z,10
2017-06-22T05:01:11.723Z,10
2017-06-22T05:01:52.183Z,10
2017-06-22T05:02:32.637Z,10
2017-06-22T05:03:13.092Z,10
2017-06-22T05:03:53.577Z,10
2017-06-22T05:04:34.046Z,10
2017-06-22T05:05:14.500Z,10
2017-06-22T05:05:54.960Z,10
2017-06-22T05:06:35.423Z,10
2017-06-22T05:07:15.873Z,10
2017-06-22T05:07:56.328Z,10
2017-06-22T05:08:36.780Z,10
2017-06-22T05:09:17.246Z,10
2017-06-22T05:09:57.690Z,10
2017-06-22T05:10:38.155Z,10
2017-06-22T05:11:18.610Z,10
2017-06-22T05:11:59.067Z,10
2017-06-22T05:12:39.528Z,10
2017-06-22T05:13:19.982Z,10
2017-06-22T05:14:00.443Z,10
2017-06-22T05:14:40.902Z,10
2017-06-22T05:15:21.362Z,10
2017-06-22T05:16:01.815Z,10
2017-06-22T05:16:42.271Z,10
2017-06-22T05:17:22.726Z,15
2017-06-22T05:18:03.188Z,15
2017-06-22T05:18:43.639Z,15
2017-06-22T05:19:24.100Z,15
2017-06-22T05:20:04.558Z,15
2017-06-22T05:20:45.020Z,15
2017-06-22T05:21:25.472Z,15
2017-06-22T05:22:05.932Z,15
2017-06-22T05:22:46.387Z,15
2017-06-22T05:23:26.841Z,15
2017-06-22T05:24:07.303Z,15
2017-06-22T05:24:47.761Z,15
2017-06-22T05:25:28.215Z,15
2017-06-22T05:26:08.679Z,15
2017-06-22T05:26:49.138Z,15
2017-06-22T05:27:29.599Z,15
2017-06-22T05:28:10.059Z,15
2017-06-22T05:28:50.514Z,15
2017-06-22T05:29:30.978Z,15
2017-06-22T05:30:11.431Z,15
2017-06-22T05:30:51.892Z,15
2017-06-22T05:31:32.354Z,15
2017-06-22T05:32:12.803Z,15
2017-06-22T05:32:53.266Z,15
2017-06-22T05:33:33.724Z,15
2017-06-22T05:34:14.180Z,15
2017-06-22T05:34:54.638Z,15
2017-06-22T05:35:35.099Z,15
2017-06-22T05:36:15.564Z,15
2017-06-22T05:36:56.022Z,15
2017-06-22T05:37:36.480Z,15
2017-06-22T05:38:16.943Z,15
2017-06-22T05:38:57.383Z,15
2017-06-22T05:39:37.832Z,15
2017-06-22T05:40:18.288Z,15
2017-06-22T05:40:58.759Z,15
2017-06-22T05:41:39.229Z,15
2017-06-22T05:42:19.683Z,15
2017-06-22T05:43:00.139Z,15
2017-06-22T05:43:40.591Z,15
2017-06-22T05:44:21.045Z,15
2017-06-22T05:45:01.495Z,15
2017-06-22T05:45:41.944Z,15
2017-06-22T05:46:22.405Z,15
2017-06-22T05:47:02.870Z,20
2017-06-22T05:47:43.331Z,20
2017-06-22T05:48:23.792Z,20
2017-06-22T05:49:04.250Z,15
2017-06-22T05:49:44.713Z,15
2017-06-22T05:50:25.171Z,15
2017-06-22T05:51:05.626Z,15
2017-06-22T05:51:46.088Z,15
2017-06-22T05:52:26.541Z,15
2017-06-22T05:53:07.003Z,20
2017-06-22T05:53:47.454Z,15
2017-06-22T05:54:27.923Z,15
2017-06-22T05:55:08.379Z,15
2017-06-22T05:55:48.837Z,20
2017-06-22T05:56:29.319Z,15
2017-06-22T05:57:09.752Z,15
2017-06-22T05:57:50.211Z,15
2017-06-22T05:58:30.669Z,15
2017-06-22T05:59:11.119Z,20
2017-06-22T05:59:51.587Z,20
2017-06-22T06:00:32.045Z,15
2017-06-22T06:01:12.504Z,20
2017-06-22T06:01:52.965Z,20
2017-06-22T06:02:33.422Z,20
2017-06-22T06:03:13.880Z,20
2017-06-22T06:03:54.338Z,20
2017-06-22T06:04:34.794Z,20
2017-06-22T06:05:15.266Z,20
2017-06-22T06:05:55.719Z,20
2017-06-22T06:06:36.174Z,20
2017-06-22T06:07:16.631Z,20
2017-06-22T06:07:57.093Z,20
2017-06-22T06:08:37.555Z,20
2017-06-22T06:09:18.016Z,25
2017-06-22T06:09:58.477Z,25
2017-06-22T06:10:38.931Z,25
2017-06-22T06:11:19.391Z,25
2017-06-22T06:11:59.848Z,25
2017-06-22T06:12:40.304Z,25
2017-06-22T06:13:20.764Z,25
2017-06-22T06:14:01.224Z,25
2017-06-22T06:14:41.682Z,25
2017-06-22T06:15:22.147Z,25
2017-06-22T06:16:02.610Z,25
2017-06-22T06:16:43.062Z,25
2017-06-22T06:17:23.517Z,25
2017-06-22T06:18:03.973Z,25
2017-06-22T06:18:44.431Z,25
2017-06-22T06:19:24.894Z,25
2017-06-22T06:20:05.353Z,25
2017-06-22T06:20:45.815Z,25
2017-06-22T06:21:26.274Z,25
2017-06-22T06:22:06.732Z,25
2017-06-22T06:22:47.191Z,25
2017-06-22T06:23:27.651Z,25
2017-06-22T06:24:08.118Z,25
2017-06-22T06:24:48.577Z,25
2017-06-22T06:25:29.065Z,25
2017-06-22T06:26:09.516Z,25
2017-06-22T06:26:49.974Z,25
2017-06-22T06:27:30.431Z,25
2017-06-22T06:28:10.891Z,25
2017-06-22T06:28:51.347Z,30
2017-06-22T06:29:31.810Z,30
2017-06-22T06:30:12.267Z,30
2017-06-22T06:30:52.731Z,25
2017-06-22T06:31:33.226Z,30
2017-06-22T06:32:13.684Z,30
2017-06-22T06:32:54.138Z,30
2017-06-22T06:33:34.600Z,30
2017-06-22T06:34:15.064Z,30
2017-06-22T06:34:55.522Z,30
2017-06-22T06:35:35.985Z,30
2017-06-22T06:36:16.450Z,30
2017-06-22T06:36:56.909Z,30
2017-06-22T06:37:37.370Z,30
2017-06-22T06:38:17.835Z,30
2017-06-22T06:38:58.292Z,30
2017-06-22T06:39:38.754Z,30
2017-06-22T06:40:19.211Z,30
2017-06-22T06:40:59.677Z,30
2017-06-22T06:41:40.139Z,30
2017-06-22T06:42:20.598Z,30
2017-06-22T06:43:01.065Z,30
2017-06-22T06:43:41.520Z,30
2017-06-22T06:44:21.980Z,30
2017-06-22T06:45:02.442Z,30
2017-06-22T06:45:42.906Z,30
2017-06-22T06:46:23.367Z,30
2017-06-22T06:47:03.824Z,30
2017-06-22T06:47:44.281Z,30
2017-06-22T06:48:24.741Z,30
2017-06-22T06:49:05.202Z,30
2017-06-22T06:49:45.658Z,30
2017-06-22T06:50:26.111Z,30
2017-06-22T06:51:06.573Z,30
2017-06-22T06:51:47.040Z,30
2017-06-22T06:52:27.501Z,30
2017-06-22T06:53:07.954Z,30
2017-06-22T06:53:48.433Z,30
2017-06-22T06:54:28.894Z,30
2017-06-22T06:55:09.355Z,30
2017-06-22T06:55:49.811Z,30
2017-06-22T06:56:30.270Z,30
2017-06-22T06:57:10.733Z,30
2017-06-22T06:57:51.206Z,30
2017-06-22T06:58:31.665Z,30
2017-06-22T06:59:12.125Z,35
2017-06-22T06:59:52.591Z,30
2017-06-22T07:00:33.047Z,35
2017-06-22T07:01:13.509Z,35
2017-06-22T07:01:53.968Z,30
2017-06-22T07:02:34.430Z,30
2017-06-22T07:03:14.888Z,35
2017-06-22T07:03:55.357Z,30
2017-06-22T07:04:35.812Z,30
2017-06-22T07:05:16.269Z,30
2017-06-22T07:05:56.729Z,35
2017-06-22T07:06:37.193Z,35
2017-06-22T07:07:17.659Z,35
2017-06-22T07:07:58.118Z,35
2017-06-22T07:08:38.580Z,35
2017-06-22T07:09:19.039Z,35
2017-06-22T07:09:59.503Z,35
2017-06-22T07:10:39.959Z,35
2017-06-22T07:11:20.422Z,35
2017-06-22T07:12:00.891Z,35
2017-06-22T07:12:41.337Z,35
2017-06-22T07:13:21.802Z,35
2017-06-22T07:14:02.260Z,35
2017-06-22T07:14:42.716Z,35
2017-06-22T07:15:23.177Z,35
2017-06-22T07:16:03.637Z,40
2017-06-22T07:16:44.095Z,40
2017-06-22T07:17:24.557Z,40
2017-06-22T07:18:05.020Z,40
2017-06-22T07:18:45.480Z,35
2017-06-22T07:19:25.940Z,40
2017-06-22T07:20:06.404Z,40
2017-06-22T07:20:46.856Z,40
2017-06-22T07:21:27.319Z,40
2017-06-22T07:22:07.774Z,40
2017-06-22T07:22:48.236Z,40
2017-06-22T07:23:28.697Z,40
2017-06-22T07:24:09.155Z,40
2017-06-22T07:24:49.625Z,40
2017-06-22T07:25:30.075Z,40
2017-06-22T07:26:10.531Z,40
2017-06-22T07:26:50.994Z,40
2017-06-22T07:27:31.452Z,40
2017-06-22T07:28:11.920Z,40
2017-06-22T07:28:52.372Z,40
2017-06-22T07:29:32.832Z,40
2017-06-22T07:30:13.293Z,40
2017-06-22T07:30:53.752Z,40
2017-06-22T07:31:34.206Z,40
2017-06-22T07:32:14.666Z,40
2017-06-22T07:32:55.127Z,45
2017-06-22T07:33:35.587Z,45
2017-06-22T07:34:16.049Z,45
2017-06-22T07:34:56.511Z,45
2017-06-22T07:35:36.977Z,45
2017-06-22T07:36:17.437Z,45
2017-06-22T07:36:57.922Z,45
2017-06-22T07:37:38.385Z,45
2017-06-22T07:38:18.851Z,45
2017-06-22T07:38:59.312Z,45
2017-06-22T07:39:39.771Z,45
2017-06-22T07:40:20.238Z,45
2017-06-22T07:41:00.737Z,50
2017-06-22T07:41:41.134Z,45
2017-06-22T07:42:21.597Z,45
2017-06-22T07:43:02.074Z,45
2017-06-22T07:43:42.513Z,50
2017-06-22T07:44:22.976Z,50
2017-06-22T07:45:03.437Z,50
2017-06-22T07:45:43.900Z,50
2017-06-22T07:46:24.359Z,50
2017-06-22T07:47:04.817Z,50
2017-06-22T07:47:45.276Z,50
2017-06-22T07:48:25.738Z,50
2017-06-22T07:49:06.197Z,45
2017-06-22T07:49:46.655Z,45
2017-06-22T07:50:27.110Z,50
2017-06-22T07:51:07.624Z,45
2017-06-22T07:51:48.081Z,45
2017-06-22T07:52:28.543Z,50
2017-06-22T07:53:09.029Z,45
2017-06-22T07:53:49.493Z,50
2017-06-22T07:54:29.955Z,50
2017-06-22T07:55:10.411Z,50
2017-06-22T07:55:50.864Z,50
2017-06-22T07:56:31.322Z,50
2017-06-22T07:57:11.775Z,50
2017-06-22T07:57:52.237Z,50
2017-06-22T07:58:32.728Z,50
2017-06-22T07:59:13.192Z,50
2017-06-22T07:59:53.650Z,50
2017-06-22T08:00:34.112Z,50
2017-06-22T08:01:14.573Z,50
2017-06-22T08:01:55.034Z,50
2017-06-22T08:02:35.492Z,45
2017-06-22T08:03:15.959Z,50
2017-06-22T08:03:56.421Z,50
2017-06-22T08:04:36.887Z,50
2017-06-22T08:05:17.344Z,50
2017-06-22T08:05:57.800Z,55
2017-06-22T08:06:38.264Z,55
2017-06-22T08:07:18.728Z,55
2017-06-22T08:07:59.199Z,55
2017-06-22T08:08:39.657Z,55
2017-06-22T08:09:20.137Z,55
2017-06-22T08:10:00.588Z,55
2017-06-22T08:10:41.047Z,60
2017-06-22T08:11:21.514Z,60
2017-06-22T08:12:01.994Z,55
2017-06-22T08:12:42.451Z,55
2017-06-22T08:13:22.906Z,60
2017-06-22T08:14:03.369Z,55
2017-06-22T08:14:43.825Z,60
2017-06-22T08:15:24.289Z,60
2017-06-22T08:16:04.749Z,60
2017-06-22T08:16:45.213Z,60
2017-06-22T08:17:25.679Z,60
2017-06-22T08:18:06.140Z,60
2017-06-22T08:18:46.602Z,60
2017-06-22T08:19:27.063Z,65
2017-06-22T08:20:07.516Z,65
2017-06-22T08:20:47.978Z,65
2017-06-22T08:21:28.437Z,65
2017-06-22T08:22:08.895Z,65
2017-06-22T08:22:49.371Z,60
2017-06-22T08:23:29.827Z,60
2017-06-22T08:24:10.292Z,60
2017-06-22T08:24:50.745Z,60
2017-06-22T08:25:31.213Z,55
2017-06-22T08:26:11.667Z,55
2017-06-22T08:26:52.133Z,55
2017-06-22T08:27:32.651Z,55
2017-06-22T08:28:13.082Z,55
2017-06-22T08:28:53.538Z,55
2017-06-22T08:29:33.994Z,60
2017-06-22T08:32:02.180Z,60
2017-06-22T08:32:42.640Z,60
2017-06-22T08:33:23.096Z,60
2017-06-22T08:34:03.548Z,60
2017-06-22T08:34:44.013Z,65
2017-06-22T08:35:24.470Z,65
2017-06-22T08:36:04.929Z,60
2017-06-22T08:36:45.388Z,55
2017-06-22T08:37:25.846Z,60
2017-06-22T08:38:06.301Z,60
2017-06-22T08:38:46.752Z,60
2017-06-22T08:39:27.215Z,65
2017-06-22T08:40:07.668Z,65
2017-06-22T08:40:48.149Z,60
2017-06-22T08:41:28.609Z,60
2017-06-22T08:42:09.068Z,60
2017-06-22T08:42:49.541Z,65
2017-06-22T08:43:29.999Z,60
2017-06-22T08:44:10.449Z,65
2017-06-22T08:44:50.911Z,65
2017-06-22T08:45:31.365Z,65
2017-06-22T08:46:11.818Z,65
2017-06-22T08:46:52.285Z,70
2017-06-22T08:47:32.716Z,65
2017-06-22T08:48:13.190Z,65
2017-06-22T08:48:53.650Z,65
2017-06-22T08:49:34.109Z,70
2017-06-22T08:50:14.587Z,70
2017-06-22T08:50:55.019Z,75
2017-06-22T08:51:35.476Z,70
2017-06-22T08:52:15.924Z,70
2017-06-22T08:52:56.383Z,75
2017-06-22T08:53:36.838Z,70
2017-06-22T08:54:17.291Z,70
2017-06-22T08:54:57.741Z,75
2017-06-22T08:55:38.195Z,75
2017-06-22T08:56:18.663Z,75
2017-06-22T08:56:59.111Z,70
2017-06-22T08:57:39.571Z,75
2017-06-22T08:58:20.030Z,70
2017-06-22T08:59:00.488Z,70
2017-06-22T08:59:40.950Z,70
2017-06-22T09:00:21.408Z,70
2017-06-22T09:01:01.874Z,75
2017-06-22T09:01:42.327Z,75
2017-06-22T09:02:22.778Z,75
2017-06-22T09:03:03.249Z,70
2017-06-22T09:03:43.703Z,70
2017-06-22T09:04:24.162Z,70
2017-06-22T09:05:04.622Z,70
2017-06-22T09:05:45.077Z,70
2017-06-22T09:06:25.525Z,65
2017-06-22T09:07:05.974Z,70
2017-06-22T09:07:46.427Z,70
2017-06-22T09:08:26.886Z,70
2017-06-22T09:09:07.350Z,70
2017-06-22T09:09:47.809Z,75
2017-06-22T09:10:28.270Z,75
2017-06-22T09:11:08.726Z,75
2017-06-22T09:11:49.189Z,75
2017-06-22T09:12:29.639Z,75
2017-06-22T09:13:10.100Z,75
2017-06-22T09:13:50.560Z,75
2017-06-22T09:14:31.012Z,75
2017-06-22T09:15:11.468Z,75
2017-06-22T09:15:51.925Z,70
2017-06-22T09:16:32.387Z,75
2017-06-22T09:17:12.849Z,70
2017-06-22T09:17:53.309Z,70
2017-06-22T09:18:33.765Z,75
2017-06-22T09:19:14.223Z,75
2017-06-22T09:19:54.694Z,75
2017-06-22T09:22:27.783Z,75
2017-06-22T09:23:08.243Z,70
2017-06-22T09:23:48.717Z,70
2017-06-22T09:24:29.167Z,70
2017-06-22T09:25:09.617Z,70
2017-06-22T09:25:50.084Z,70
2017-06-22T09:26:30.542Z,70
2017-06-22T09:27:11.001Z,70
2017-06-22T09:27:51.462Z,70
2017-06-22T09:28:31.914Z,70
2017-06-22T09:29:12.365Z,75
2017-06-22T09:29:52.819Z,75
2017-06-22T09:30:33.266Z,75
2017-06-22T09:31:13.745Z,75
2017-06-22T09:31:54.190Z,80
2017-06-22T09:32:34.639Z,85
2017-06-22T09:33:15.074Z,80
2017-06-22T09:33:55.538Z,80
2017-06-22T09:34:35.994Z,75
2017-06-22T09:35:16.459Z,75
2017-06-22T09:35:56.950Z,75
2017-06-22T09:36:37.404Z,70
2017-06-22T09:37:17.857Z,70
2017-06-22T09:37:58.326Z,65
2017-06-22T09:38:38.787Z,65
2017-06-22T09:39:19.225Z,65
2017-06-22T09:39:59.687Z,65
2017-06-22T09:40:40.163Z,70
2017-06-22T09:41:20.645Z,75
2017-06-22T09:42:01.117Z,80
2017-06-22T09:42:41.563Z,80
2017-06-22T09:43:22.015Z,80
2017-06-22T09:44:02.469Z,80
2017-06-22T09:44:42.941Z,80
2017-06-22T09:45:23.434Z,80
2017-06-22T09:46:03.884Z,80
2017-06-22T09:46:44.345Z,85
2017-06-22T09:47:24.813Z,90
2017-06-22T09:48:05.262Z,90
2017-06-22T09:48:45.727Z,90
2017-06-22T09:49:26.190Z,90
2017-06-22T09:50:06.656Z,90
2017-06-22T09:50:47.118Z,85
2017-06-22T09:51:27.576Z,85
2017-06-22T09:52:08.045Z,85
2017-06-22T09:52:48.499Z,85
2017-06-22T09:53:28.968Z,90
2017-06-22T09:54:09.416Z,85
2017-06-22T09:54:49.872Z,85
2017-06-22T09:55:30.329Z,80
2017-06-22T09:56:10.791Z,80
2017-06-22T09:56:51.250Z,85
2017-06-22T09:57:31.701Z,80
2017-06-22T09:58:12.151Z,75
2017-06-22T09:58:52.603Z,75